createdAt,value
2023-04-16T00:03:09.470Z,28.00
2023-04-16T00:08:02.371Z,27.60
2023-04-16T00:12:56.278Z,27.93
2023-04-16T00:17:48.986Z,27.60
2023-04-16T00:22:41.582Z,27.17
2023-04-16T00:27:34.161Z,27.63
2023-04-16T00:32:28.075Z,28.23
2023-04-16T00:37:20.801Z,27.30
2023-04-16T00:42:13.466Z,29.20
2023-04-16T00:47:07.538Z,26.30
2023-04-16T00:52:02.441Z,26.27
2023-04-16T00:56:55.085Z,28.03
2023-04-16T01:01:47.673Z,27.00
2023-04-16T01:06:40.276Z,26.50
2023-04-16T01:11:34.209Z,26.30
2023-04-16T01:16:27.699Z,27.60
2023-04-16T01:21:21.640Z,27.80
2023-04-16T01:26:14.191Z,29.30
2023-04-16T01:31:07.510Z,27.33
2023-04-16T01:36:08.965Z,26.33
2023-04-16T01:41:02.859Z,25.00
2023-04-16T01:45:59.943Z,27.43
2023-04-16T01:50:52.566Z,27.43
2023-04-16T01:55:45.257Z,27.50
2023-04-16T02:00:39.722Z,27.87
2023-04-16T02:05:32.292Z,28.10
2023-04-16T02:10:24.901Z,27.10
2023-04-16T02:15:18.249Z,27.13
2023-04-16T02:20:13.141Z,28.23
2023-04-16T02:25:14.183Z,26.90
2023-04-16T02:30:08.569Z,27.43
2023-04-16T02:35:03.908Z,29.30
2023-04-16T02:39:57.844Z,28.13
2023-04-16T02:44:50.439Z,29.40
2023-04-16T02:49:43.029Z,28.53
2023-04-16T02:54:35.693Z,26.17
2023-04-16T02:59:29.825Z,27.90
2023-04-16T03:04:22.654Z,28.50
2023-04-16T03:09:15.861Z,28.97
2023-04-16T03:14:08.374Z,28.40
2023-04-16T03:19:02.314Z,27.60
2023-04-16T03:23:56.044Z,26.87
2023-04-16T03:28:48.626Z,28.17
2023-04-16T03:33:43.607Z,30.17
2023-04-16T03:38:38.504Z,28.87
2023-04-16T03:43:31.281Z,30.70
2023-04-16T03:48:24.125Z,28.60
2023-04-16T03:53:16.827Z,27.77
2023-04-16T03:58:11.159Z,28.80
2023-04-16T04:03:04.119Z,29.07
2023-04-16T04:07:58.955Z,27.40
2023-04-16T04:12:51.626Z,27.50
2023-04-16T04:17:46.035Z,27.33
2023-04-16T04:22:38.917Z,27.53
2023-04-16T04:27:31.655Z,27.47
2023-04-16T04:32:24.641Z,27.27
2023-04-16T04:37:18.699Z,26.90
2023-04-16T04:42:11.550Z,28.37
2023-04-16T04:47:05.078Z,26.40
2023-04-16T04:51:57.798Z,29.00
2023-04-16T04:56:52.551Z,26.63
2023-04-16T05:01:45.943Z,26.20
2023-04-16T05:06:38.736Z,26.50
2023-04-16T05:11:31.556Z,25.50
2023-04-16T05:16:25.637Z,26.30
2023-04-16T05:21:18.286Z,25.20
2023-04-16T05:26:10.985Z,25.77
2023-04-16T05:31:03.582Z,24.87
2023-04-16T05:35:57.528Z,25.63
2023-04-16T05:40:50.675Z,26.13
2023-04-16T05:45:43.390Z,27.30
2023-04-16T05:50:36.085Z,25.77
2023-04-16T05:55:30.036Z,27.33
2023-04-16T06:00:22.661Z,26.50
2023-04-16T06:05:15.295Z,24.80
2023-04-16T06:10:08.256Z,28.37
2023-04-16T06:15:02.231Z,24.80
2023-04-16T06:19:54.750Z,22.97
2023-04-16T06:24:47.235Z,20.80
2023-04-16T06:29:41.508Z,20.40
2023-04-16T06:34:35.919Z,22.70
2023-04-16T06:39:28.510Z,20.97
2023-04-16T06:44:21.036Z,20.17
2023-04-16T06:49:13.656Z,21.07
2023-04-16T06:54:07.599Z,22.03
2023-04-16T06:59:00.961Z,24.23
2023-04-16T07:03:53.903Z,20.80
2023-04-16T07:08:46.610Z,18.93
2023-04-16T07:13:40.595Z,19.30
2023-04-16T07:18:33.392Z,22.20
2023-04-16T07:23:25.934Z,23.13
2023-04-16T07:28:18.499Z,22.17
2023-04-16T07:33:12.396Z,23.00
2023-04-16T07:38:05.128Z,19.47
2023-04-16T07:42:57.794Z,21.30
2023-04-16T07:47:50.448Z,25.90
2023-04-16T07:52:45.364Z,22.13
2023-04-16T07:57:38.151Z,20.20
2023-04-16T08:02:30.804Z,22.67
2023-04-16T08:07:23.440Z,20.07
2023-04-16T08:12:17.472Z,21.50
2023-04-16T08:17:10.198Z,21.60
2023-04-16T08:22:02.894Z,22.20
2023-04-16T08:26:58.410Z,21.97
2023-04-16T08:31:56.750Z,20.63
2023-04-16T08:36:49.508Z,19.90
2023-04-16T08:41:44.019Z,21.30
2023-04-16T08:46:37.980Z,23.97
2023-04-16T08:51:34.991Z,29.90
2023-04-16T08:56:28.129Z,28.53
2023-04-16T09:01:20.864Z,21.43
2023-04-16T09:06:13.812Z,17.77
2023-04-16T09:11:07.986Z,17.50
2023-04-16T09:16:00.735Z,17.10
2023-04-16T09:20:53.326Z,15.93
2023-04-16T09:25:46.071Z,15.33
2023-04-16T09:30:39.946Z,17.53
2023-04-16T09:35:45.649Z,15.70
2023-04-16T09:40:39.708Z,16.23
2023-04-16T09:45:33.942Z,16.40
2023-04-16T09:50:29.383Z,16.40
2023-04-16T09:55:24.001Z,18.90
2023-04-16T10:00:19.543Z,20.20
2023-04-16T10:05:16.824Z,20.47
2023-04-16T10:10:11.254Z,14.80
2023-04-16T10:15:04.971Z,17.57
2023-04-16T10:19:58.629Z,17.67
2023-04-16T10:24:51.986Z,13.80
2023-04-16T10:29:46.069Z,13.30
2023-04-16T10:34:38.770Z,11.23
2023-04-16T10:39:31.353Z,12.03
2023-04-16T10:44:25.897Z,11.87
2023-04-16T10:49:20.410Z,11.77
2023-04-16T10:54:26.252Z,12.10
2023-04-16T10:59:19.934Z,11.70
2023-04-16T11:04:27.700Z,11.33
2023-04-16T11:09:35.507Z,12.60
2023-04-16T11:14:30.749Z,11.10
2023-04-16T11:19:23.418Z,12.17
2023-04-16T11:24:16.230Z,11.67
2023-04-16T11:29:14.958Z,12.10
2023-04-16T11:34:09.742Z,11.37
2023-04-16T11:39:03.115Z,11.63
2023-04-16T11:43:55.780Z,11.80
2023-04-16T11:48:49.218Z,12.00
2023-04-16T11:53:47.948Z,10.53
2023-04-16T11:58:40.920Z,10.60
2023-04-16T12:03:39.546Z,11.20
2023-04-16T12:08:32.931Z,14.43
2023-04-16T12:13:26.877Z,10.23
2023-04-16T12:18:20.302Z,23.60
2023-04-16T12:23:23.233Z,11.80
2023-04-16T12:28:16.516Z,12.40
2023-04-16T12:33:17.315Z,11.43
2023-04-16T12:38:10.602Z,11.30
2023-04-16T12:43:03.386Z,11.43
2023-04-16T12:47:56.220Z,12.20
2023-04-16T12:52:50.582Z,12.40
2023-04-16T12:57:43.205Z,13.50
2023-04-16T13:02:35.946Z,13.63
2023-04-16T13:07:28.993Z,16.07
2023-04-16T13:12:23.076Z,12.80
2023-04-16T13:17:15.705Z,14.00
2023-04-16T13:22:08.298Z,11.80
2023-04-16T13:27:00.920Z,12.40
2023-04-16T13:31:55.013Z,12.93
2023-04-16T13:36:47.618Z,10.43
2023-04-16T13:41:40.342Z,10.47
2023-04-16T13:46:33.201Z,11.07
2023-04-16T13:51:27.542Z,9.83
2023-04-16T13:56:20.279Z,10.70
2023-04-16T14:01:12.962Z,11.17
2023-04-16T14:06:06.062Z,14.20
2023-04-16T14:11:00.587Z,11.80
2023-04-16T14:15:54.519Z,10.57
2023-04-16T14:20:47.098Z,10.50
2023-04-16T14:25:39.910Z,9.90
2023-04-16T14:30:37.540Z,9.83
2023-04-16T14:35:31.226Z,10.43
2023-04-16T14:40:23.819Z,10.50
2023-04-16T14:45:16.480Z,9.80
2023-04-16T14:50:11.364Z,10.47
2023-04-16T14:55:05.445Z,10.60
2023-04-16T14:59:58.042Z,10.37
2023-04-16T15:04:50.621Z,9.57
2023-04-16T15:09:44.562Z,10.33
2023-04-16T15:14:37.274Z,12.23
2023-04-16T15:19:29.902Z,10.90
2023-04-16T15:24:22.508Z,11.60
2023-04-16T15:29:24.824Z,13.60
2023-04-16T15:34:19.236Z,12.83
2023-04-16T15:39:12.216Z,12.63
2023-04-16T15:44:05.515Z,14.00
2023-04-16T15:49:09.628Z,14.07
2023-04-16T15:54:04.788Z,18.57
2023-04-16T15:59:04.210Z,18.57
2023-04-16T16:03:57.204Z,26.50
2023-04-16T16:08:51.367Z,16.80
2023-04-16T16:13:44.496Z,13.80
2023-04-16T16:18:37.349Z,13.20
2023-04-16T16:23:30.020Z,13.33
2023-04-16T16:28:25.065Z,15.30
2023-04-16T16:33:18.015Z,12.60
2023-04-16T16:38:10.744Z,10.80
2023-04-16T16:43:03.873Z,12.57
2023-04-16T16:47:58.923Z,12.50
2023-04-16T16:52:51.667Z,12.43
2023-04-16T16:57:44.309Z,15.30
2023-04-16T17:02:37.023Z,14.07
2023-04-16T17:07:31.050Z,14.57
2023-04-16T17:12:24.171Z,16.70
2023-04-16T17:17:17.125Z,13.57
2023-04-16T17:22:09.802Z,13.83
2023-04-16T17:27:04.071Z,13.30
2023-04-16T17:31:56.770Z,14.70
2023-04-16T17:36:50.498Z,15.80
2023-04-16T17:41:43.151Z,15.80
2023-04-16T17:46:37.284Z,16.37
2023-04-16T17:51:31.117Z,16.90
2023-04-16T17:56:23.687Z,16.80
2023-04-16T18:01:18.630Z,17.63
2023-04-16T18:06:12.616Z,18.90
2023-04-16T18:11:07.209Z,17.03
2023-04-16T18:15:59.830Z,18.33
2023-04-16T18:20:53.174Z,19.70
2023-04-16T18:25:48.841Z,18.97
2023-04-16T18:30:41.576Z,18.80
2023-04-16T18:35:34.396Z,21.63
2023-04-16T18:40:29.158Z,20.10
2023-04-16T18:45:23.293Z,21.33
2023-04-16T18:50:15.900Z,19.37
2023-04-16T18:55:08.945Z,20.60
2023-04-16T19:00:01.531Z,23.63
2023-04-16T19:04:55.806Z,21.00
2023-04-16T19:09:48.392Z,23.03
2023-04-16T19:14:40.910Z,25.43
2023-04-16T19:19:33.589Z,24.20
2023-04-16T19:24:27.558Z,24.10
2023-04-16T19:29:20.170Z,25.47
2023-04-16T19:34:13.015Z,24.07
2023-04-16T19:39:06.121Z,22.53
2023-04-16T19:44:00.173Z,21.33
2023-04-16T19:48:52.743Z,22.40
2023-04-16T19:53:45.345Z,22.80
2023-04-16T19:58:39.199Z,22.37
2023-04-16T20:03:33.344Z,23.40
2023-04-16T20:08:25.966Z,24.90
2023-04-16T20:13:18.872Z,26.77
2023-04-16T20:18:12.788Z,27.87
2023-04-16T20:23:06.766Z,24.40
2023-04-16T20:28:00.685Z,27.07
2023-04-16T20:32:53.227Z,29.73
2023-04-16T20:37:46.534Z,32.50
2023-04-16T20:42:41.266Z,33.17
2023-04-16T20:47:34.969Z,34.00
2023-04-16T20:52:27.703Z,35.33
2023-04-16T20:57:22.146Z,35.37
2023-04-16T21:02:16.329Z,35.63
2023-04-16T21:07:09.176Z,37.70
2023-04-16T21:12:01.972Z,39.70
2023-04-16T21:16:55.207Z,35.43
2023-04-16T21:21:49.041Z,34.47
2023-04-16T21:26:41.556Z,32.73
2023-04-16T21:31:34.233Z,34.30
2023-04-16T21:36:27.484Z,33.67
2023-04-16T21:41:24.658Z,31.53
2023-04-16T21:46:17.222Z,32.13
2023-04-16T21:51:09.998Z,30.70
2023-04-16T21:56:03.482Z,34.07
2023-04-16T22:00:57.456Z,34.87
2023-04-16T22:05:50.013Z,34.20
2023-04-16T22:10:42.572Z,35.43
2023-04-16T22:15:35.232Z,35.50
2023-04-16T22:20:30.734Z,36.10
2023-04-16T22:25:23.433Z,35.37
2023-04-16T22:30:16.312Z,34.87
2023-04-16T22:35:09.409Z,34.10
2023-04-16T22:40:07.009Z,36.93
2023-04-16T22:44:59.708Z,33.77
2023-04-16T22:49:52.261Z,35.97
2023-04-16T22:54:44.818Z,36.60
2023-04-16T22:59:38.714Z,33.40
2023-04-16T23:04:32.866Z,34.47
2023-04-16T23:09:25.579Z,35.67
2023-04-16T23:14:18.584Z,36.37
2023-04-16T23:19:15.731Z,39.80
2023-04-16T23:24:08.622Z,38.17
2023-04-16T23:29:01.233Z,39.50
2023-04-16T23:33:54.082Z,40.00
2023-04-16T23:38:48.750Z,39.77
2023-04-16T23:43:41.614Z,40.43
2023-04-16T23:48:34.275Z,37.70
2023-04-16T23:53:26.810Z,36.90
2023-04-16T23:58:20.755Z,37.90
